Capitol Logistics 310


CYHZ
Robert L. Stanfield International Airport
Halifax, CA
KRFD
Chicago/Rockford International Airport
Rockford, US

Route Details

Aircraft Information
Primary: Boeing 767-300BDSF
Backup: Not Available
Route Data
Distance: 1123nm
Sched. Duration: 2h 29m
Avg. Duration: 3h 11m (+82m)
Times Flown: 11
Recm'd Route: YSJ DERDO YUL Q824 LETAK Q848 SLLAP BAE
Planned Altitude: 34,000ft
Origin Wx: CYHZ 260700Z 03004KT 15SM SKC 01/M03 A3042 RMK SLP309
Dest. Wx: KRFD 260735Z 35010KT 2 1/2SM -SN BR BKN008 OVC031 01/M01 A3024 RMK AO2 P0000 T00111011
Notes: LOBSTER KING

Financial History
Total Freight: 1,243,281lbs
Average Load: 113,026lbs/flt
Fuel Used: 392,685lbs
Avg. Fuel Used: 35,699lbs/flt
Fuel Expense: $314,148
Avg. Fuel Expense: $28,559
Avg. Fuel Cost: $0.80/lbs
Total Gross Income: $1,988,072
Pilot Pay: $2,479
Total Expenses: $215,284
Total Revenue: $1,449,625
Average Revenue: $180,733.85